Flight Track Log - Related Links

Times and Time Zones

All times are in EDT time to prevent confusion due to time zone crossing. See the DLH3316 flight status page for this flight to view local times or setup timezone preferences in your user account.

Time Position Orientation Groundspeed Altitude Reporting Facility
EDT Latitude Longitude Course Direction KTS MPH feet Rate Location/Type
Wed 05:26:37 AM 52.5560 13.3000 19° North 11 13  Level FlightAware ADS-B
Wed 05:27:08 AM 52.5570 13.3010 31° Northeast 9 10 224 Level FlightAware ADS-B
Wed 05:27:37 AM 52.5580 13.3030 51° Northeast 12 14 253 Level FlightAware ADS-B
Wed 05:28:08 AM 52.5580 13.3060 90° East 16 18 288 Level FlightAware ADS-B
Wed 05:28:33 AM 52.5590 13.3090 61° Northeast 14 16 339 Level FlightAware ADS-B
Wed 05:28:47 AM 52.5600 13.3100 31° Northeast 12 14 395 Level FlightAware ADS-B
Wed 05:29:18 AM 52.5610 13.3100 360° North 11 13 435 Level FlightAware ADS-B
Wed 05:29:42 AM 52.5620 13.3090 329° Northwest 6 7 561 Level FlightAware ADS-B
Wed 05:31:05 AM 52.5570 13.2610 260° West 152 175 1,000 1,274 Climbing FlightAware ADS-B
Wed 05:31:35 AM 52.5510 13.2060 260° West 191 220 2,400 2,441 Climbing FlightAware ADS-B
Wed 05:32:04 AM 52.5460 13.1580 260° West 232 267 3,400 2,455 Climbing FlightAware ADS-B
Wed 05:32:19 AM 52.5430 13.1300 260° West 240 276 4,200 2,933 Climbing FlightAware ADS-B
Wed 05:32:49 AM 52.5340 13.0760 255° West 256 295 5,600 3,055 Climbing FlightAware ADS-B
Wed 05:33:14 AM 52.5180 13.0350 237° Southwest 260 299 7,000 3,240 Climbing FlightAware ADS-B
Wed 05:33:39 AM 52.5010 12.9920 237° Southwest 270 311 8,300 3,055 Climbing FlightAware ADS-B
Wed 05:34:09 AM 52.4800 12.9400 236° Southwest 281 323 9,800 2,314 Climbing FlightAware ADS-B
Wed 05:34:49 AM 52.4450 12.8720 230° Southwest 320 368 11,000 2,211 Climbing FlightAware ADS-B
Wed 05:36:03 AM 52.3540 12.7460 220° Southwest 359 413 14,000 2,431 Climbing FlightAware ADS-B
Wed 05:36:45 AM 52.2990 12.6690 221° Southwest 376 433 15,700 2,268 Climbing FlightAware ADS-B
Wed 05:37:25 AM 52.2500 12.6020 220° Southwest 387 445 17,100 2,341 Climbing FlightAware ADS-B
Wed 05:38:07 AM 52.1880 12.5160 220° Southwest 393 452 18,900 2,429 Climbing FlightAware ADS-B
Wed 05:38:49 AM 52.1280 12.4330 220° Southwest 407 468 20,500 2,000 Climbing FlightAware ADS-B
Wed 05:39:46 AM 52.0550 12.3330 220° Southwest 417 480 22,200 1,958 Climbing FlightAware ADS-B
Wed 05:40:24 AM 51.9880 12.2410 220° Southwest 426 490 23,600 1,976 Climbing FlightAware ADS-B
Wed 05:41:11 AM 51.9160 12.1440 220° Southwest 434 499 25,000 1,543 Climbing FlightAware ADS-B
Wed 05:42:09 AM 51.8320 12.0300 220° Southwest 445 512 26,300 1,394 Climbing FlightAware ADS-B
Wed 05:42:50 AM 51.7670 11.9420 220° Southwest 451 519 27,300 1,481 Climbing FlightAware ADS-B
Wed 05:43:30 AM 51.7030 11.8570 219° Southwest 456 525 28,300 1,373 Climbing FlightAware ADS-B
Wed 05:44:13 AM 51.6320 11.7610 220° Southwest 463 533 29,200 1,259 Climbing FlightAware ADS-B
Wed 05:44:51 AM 51.5680 11.6760 220° Southwest 467 537 30,000 1,263 Climbing FlightAware ADS-B
Wed 05:45:29 AM 51.5010 11.5870 220° Southwest 463 533 30,800 1,023 Climbing FlightAware ADS-B
Wed 05:46:19 AM 51.4130 11.4840 216° Southwest 486 559 31,500 1,146 Climbing FlightAware ADS-B
Wed 05:46:58 AM 51.3310 11.4260 204° Southwest 489 563 32,500 1,286 Climbing FlightAware ADS-B
Wed 05:47:43 AM 51.2290 11.3870 193° South 494 568 33,300 1,059 Climbing FlightAware ADS-B
Wed 05:48:23 AM 51.1430 11.3570 192° South 490 564 34,000 1,184 Climbing FlightAware ADS-B
Wed 05:48:59 AM 51.0620 11.3290 192° South 495 570 34,800 1,275 Climbing FlightAware ADS-B
Wed 05:49:43 AM 50.9630 11.2950 192° South 481 554 35,700 1,133 Climbing FlightAware ADS-B
Wed 05:50:29 AM 50.8610 11.2610 192° South 489 563 36,500 857 Climbing FlightAware ADS-B
Wed 05:51:14 AM 50.7600 11.2260 192° South 490 564 37,000 353 Climbing FlightAware ADS-B
Wed 05:51:54 AM 50.6720 11.1960 192° South 487 560 37,000  Level FlightAware ADS-B
Wed 05:52:34 AM 50.5860 11.1670 192° South 487 560 37,000  Level FlightAware ADS-B
Wed 05:53:18 AM 50.4860 11.1330 192° South 488 562 37,000  Level FlightAware ADS-B
Wed 05:54:01 AM 50.3930 11.1020 192° South 488 562 37,000  Level FlightAware ADS-B
Wed 05:54:41 AM 50.3080 11.0740 192° South 489 563 37,000  Level FlightAware ADS-B
Wed 05:55:35 AM 50.2050 11.0390 192° South 489 563 37,000  Level FlightAware ADS-B
Wed 05:56:14 AM 50.1060 11.0030 193° South 480 552 37,000  Level FlightAware ADS-B
Wed 05:56:53 AM 50.0340 10.9420 209° Southwest 468 539 37,000  Level FlightAware ADS-B
Wed 05:57:34 AM 49.9570 10.8490 218° Southwest 472 543 37,000  Level FlightAware ADS-B
Wed 05:58:24 AM 49.8720 10.7440 219° Southwest 472 543 37,000  Level FlightAware ADS-B
Wed 05:59:03 AM 49.8100 10.6680 218° Southwest 470 541 37,000  Level FlightAware ADS-B
Wed 05:59:42 AM 49.7360 10.5790 218° Southwest 467 537 37,000  Level FlightAware ADS-B
Wed 06:00:41 AM 49.6840 10.5150 219° Southwest 466 536 37,000  Level FlightAware ADS-B
Wed 06:01:40 AM 49.5450 10.3470 218° Southwest 455 524 37,000  Level FlightAware ADS-B
Wed 06:02:20 AM 49.4750 10.2630 218° Southwest 454 522 37,000  Level FlightAware ADS-B
Wed 06:03:00 AM 49.4070 10.1810 218° Southwest 455 524 37,000  Level FlightAware ADS-B
Wed 06:03:43 AM 49.3470 10.0940 223° Southwest 444 511 37,000  Level FlightAware ADS-B
Wed 06:04:26 AM 49.2830 9.9930 226° Southwest 444 511 37,000  Level FlightAware ADS-B
Wed 06:05:06 AM 49.2220 9.8980 226° Southwest 442 509 37,000  Level FlightAware ADS-B
Wed 06:05:46 AM 49.1660 9.8130 225° Southwest 449 517 37,000  Level FlightAware ADS-B
Wed 06:06:33 AM 49.0950 9.7030 225° Southwest 451 519 37,000  Level FlightAware ADS-B
Wed 06:07:14 AM 49.0330 9.6090 225° Southwest 454 522 37,000  Level FlightAware ADS-B
Wed 06:07:59 AM 48.9710 9.5130 225° Southwest 456 525 37,000 71 Level FlightAware ADS-B
Wed 06:08:39 AM 48.9080 9.4180 225° Southwest 456 525 37,100 75 Climbing FlightAware ADS-B
Wed 06:09:19 AM 48.8480 9.3270 225° Southwest 456 525 37,100 -74 Level FlightAware ADS-B
Wed 06:10:00 AM 48.7940 9.2460 225° Southwest 454 522 37,000 -70 Descending FlightAware ADS-B
Wed 06:10:45 AM 48.7190 9.1330 225° Southwest 451 519 37,000 -52 Level FlightAware ADS-B
Wed 06:11:55 AM 48.6200 8.9840 225° Southwest 451 519 36,900 -48 Descending FlightAware ADS-B
Wed 06:12:49 AM 48.5470 8.8760 224° Southwest 452 520 36,900 65 Level FlightAware ADS-B
Wed 06:13:28 AM 48.4930 8.7960 224° Southwest 454 522 37,000 76 Climbing FlightAware ADS-B
Wed 06:14:08 AM 48.4370 8.7130 225° Southwest 456 525 37,000  Level FlightAware ADS-B
Wed 06:14:54 AM 48.3540 8.5900 225° Southwest 458 527 37,000  Level FlightAware ADS-B
Wed 06:15:37 AM 48.2950 8.5040 224° Southwest 458 527 37,000  Level FlightAware ADS-B
Wed 06:16:21 AM 48.2200 8.3940 224° Southwest 461 531 37,000  Level FlightAware ADS-B
Wed 06:17:01 AM 48.1520 8.3130 218° Southwest 469 540 37,000  Level FlightAware ADS-B
Wed 06:17:46 AM 48.0680 8.2260 215° Southwest 468 539 37,000  Level FlightAware ADS-B
Wed 06:18:27 AM 47.9950 8.1480 216° Southwest 467 537 37,000  Level FlightAware ADS-B
Wed 06:19:07 AM 47.9240 8.0730 215° Southwest 466 536 37,000  Level FlightAware ADS-B
Wed 06:19:52 AM 47.8450 7.9900 215° Southwest 465 535 37,000  Level FlightAware ADS-B
Wed 06:20:13 AM 47.8130 7.9560 216° Southwest 465 535 37,000  Level FlightAware ADS-B
Wed 06:21:42 AM 47.6560 7.7900 215° Southwest 461 531 37,000  Level FlightAware ADS-B
Wed 06:22:22 AM 47.5860 7.7170 215° Southwest 469 540 37,000  Level FlightAware ADS-B
Wed 06:23:07 AM 47.5040 7.6390 213° Southwest 470 541 37,000  Level FlightAware ADS-B
Wed 06:23:47 AM 47.4260 7.5720 210° Southwest 471 542 37,000  Level FlightAware ADS-B
Wed 06:24:32 AM 47.3420 7.4990 211° Southwest 471 542 37,000  Level FlightAware ADS-B
Wed 06:25:07 AM 47.2750 7.4420 210° Southwest 472 543 37,000  Level FlightAware ADS-B
Wed 06:25:52 AM 47.1830 7.3640 210° Southwest 479 551 37,000  Level FlightAware ADS-B
Wed 06:26:37 AM 47.0980 7.2910 210° Southwest 478 550 37,000  Level FlightAware ADS-B
Wed 06:27:18 AM 47.0210 7.2250 210° Southwest 477 549 37,000  Level FlightAware ADS-B
Wed 06:28:00 AM 46.9390 7.1560 210° Southwest 476 548 37,000  Level FlightAware ADS-B
Wed 06:28:42 AM 46.8600 7.0900 210° Southwest 476 548 37,000  Level FlightAware ADS-B
Wed 06:29:26 AM 46.7770 7.0200 210° Southwest 477 549 37,000  Level FlightAware ADS-B
Wed 06:30:06 AM 46.7000 6.9560 210° Southwest 477 549 37,000  Level FlightAware ADS-B
Wed 06:30:47 AM 46.6210 6.8900 210° Southwest 478 550 37,000  Level FlightAware ADS-B
Wed 06:31:29 AM 46.5400 6.8230 210° Southwest 479 551 37,000  Level FlightAware ADS-B
Wed 06:32:12 AM 46.4600 6.7570 210° Southwest 480 552 37,000  Level FlightAware ADS-B
Wed 06:32:56 AM 46.3730 6.6840 210° Southwest 481 554 37,000  Level FlightAware ADS-B
Wed 06:33:37 AM 46.2940 6.6200 209° Southwest 482 555 37,000  Level FlightAware ADS-B
Wed 06:34:18 AM 46.2150 6.5560 209° Southwest 485 558 37,000  Level FlightAware ADS-B
Wed 06:35:02 AM 46.1260 6.5030 202° Southwest 494 568 37,000  Level FlightAware ADS-B
Wed 06:35:42 AM 46.0380 6.4580 200° South 494 568 37,000  Level FlightAware ADS-B
Wed 06:36:27 AM 45.9400 6.4070 200° South 495 570 37,000  Level FlightAware ADS-B
Wed 06:37:01 AM 45.8660 6.3690 200° South 496 571 37,000  Level FlightAware ADS-B
Wed 06:37:47 AM 45.7680 6.3180 200° South 496 571 37,000  Level FlightAware ADS-B
Wed 06:38:32 AM 45.6710 6.2690 199° South 497 572 37,000  Level FlightAware ADS-B
Wed 06:39:12 AM 45.5840 6.2240 200° South 496 571 37,000  Level FlightAware ADS-B
Wed 06:39:52 AM 45.4990 6.1810 200° South 496 571 37,000  Level FlightAware ADS-B
Wed 06:40:32 AM 45.4170 6.1400 199° South 496 571 37,000  Level FlightAware ADS-B
Wed 06:41:17 AM 45.3140 6.0880 200° South 495 570 37,000  Level FlightAware ADS-B
Wed 06:42:12 AM 45.2010 6.0300 200° South 494 568 37,000  Level FlightAware ADS-B
Wed 06:42:57 AM 45.1050 5.9820 199° South 494 568 37,000  Level FlightAware ADS-B
Wed 06:43:37 AM 45.0130 5.9370 199° South 496 571 37,000  Level FlightAware ADS-B
Wed 06:44:22 AM 44.9190 5.8900 199° South 496 571 37,000  Level FlightAware ADS-B
Wed 06:44:47 AM 44.8630 5.8620 200° South 496 571 37,000  Level FlightAware ADS-B
Wed 06:45:30 AM 44.7930 5.8270 200° South 496 571 37,000  Level FlightAware ADS-B
Wed 06:46:10 AM 44.6810 5.7720 199° South 497 572 37,000  Level FlightAware ADS-B
Wed 06:47:11 AM 44.5490 5.7070 199° South 499 574 37,000  Level FlightAware ADS-B
Wed 06:47:51 AM 44.4620 5.6640 199° South 499 574 37,000  Level FlightAware ADS-B
Wed 06:48:36 AM 44.3640 5.6150 200° South 498 573 37,000  Level FlightAware ADS-B
Wed 06:49:11 AM 44.2900 5.5750 201° Southwest 497 572 37,000  Level FlightAware ADS-B
Wed 06:49:56 AM 44.1930 5.5170 203° Southwest 494 568 37,000  Level FlightAware ADS-B
Wed 06:50:36 AM 44.1120 5.4590 207° Southwest 492 566 37,000  Level FlightAware ADS-B
Wed 06:51:16 AM 44.0330 5.4020 207° Southwest 492 566 37,000  Level FlightAware ADS-B
Wed 06:52:01 AM 43.9410 5.3360 207° Southwest 492 566 37,000  Level FlightAware ADS-B
Wed 06:52:41 AM 43.8590 5.2780 207° Southwest 491 565 37,000  Level FlightAware ADS-B
Wed 06:53:22 AM 43.7840 5.2240 207° Southwest 489 563 37,000  Level FlightAware ADS-B
Wed 06:54:01 AM 43.6990 5.1650 207° Southwest 489 563 37,000  Level FlightAware ADS-B
Wed 06:54:46 AM 43.6090 5.1010 207° Southwest 489 563 37,000  Level FlightAware ADS-B
Wed 06:55:41 AM 43.4960 5.0220 207° Southwest 489 563 37,000  Level FlightAware ADS-B
Wed 06:56:26 AM 43.4060 4.9580 207° Southwest 489 563 37,000  Level FlightAware ADS-B
Wed 06:57:06 AM 43.3280 4.9040 207° Southwest 491 565 37,000  Level FlightAware ADS-B
Wed 06:57:51 AM 43.2380 4.8420 207° Southwest 492 566 37,000  Level FlightAware ADS-B
Wed 06:58:31 AM 43.1550 4.7840 207° Southwest 491 565 37,000  Level FlightAware ADS-B
Wed 06:59:11 AM 43.0800 4.7320 207° Southwest 492 566 37,000  Level FlightAware ADS-B
Wed 06:59:48 AM 42.9980 4.6760 207° Southwest 484 557 37,000  Level FlightAware ADS-B
Wed 07:00:50 AM 42.9000 4.6080 207° Southwest 491 565 37,000  Level FlightAware ADS-B
Wed 07:01:27 AM 42.8110 4.5470 207° Southwest 490 564 37,000  Level FlightAware ADS-B
Wed 07:02:14 AM 42.7000 4.4720 206° Southwest 489 563 37,000  Level FlightAware ADS-B
Wed 07:03:12 AM 42.5920 4.3990 206° Southwest 489 563 37,000  Level FlightAware ADS-B
Wed 07:03:50 AM 42.5080 4.3420 207° Southwest 490 564 37,000  Level FlightAware ADS-B
Wed 07:04:36 AM 42.4120 4.2790 206° Southwest 492 566 37,000  Level FlightAware ADS-B
Wed 07:05:30 AM 42.3220 4.2350 200° South 494 568 37,000  Level FlightAware ADS-B
Wed 07:06:07 AM 42.2180 4.1880 199° South 495 570 37,000  Level FlightAware ADS-B
Wed 07:06:56 AM 42.1120 4.1390 199° South 495 570 37,000  Level FlightAware ADS-B
Wed 07:07:38 AM 42.0170 4.0960 199° South 493 567 37,000  Level FlightAware ADS-B
Wed 07:08:19 AM 41.9320 4.0570 199° South 492 566 37,000  Level FlightAware ADS-B
Wed 07:09:00 AM 41.8410 4.0160 199° South 490 564 37,000  Level FlightAware ADS-B
Wed 07:09:44 AM 41.7470 3.9730 199° South 490 564 37,000  Level FlightAware ADS-B
Wed 07:10:36 AM 41.6380 3.9240 199° South 491 565 37,000  Level FlightAware ADS-B
Wed 07:11:20 AM 41.5410 3.8800 199° South 493 567 37,000  Level FlightAware ADS-B
Wed 07:12:03 AM 41.4660 3.8460 199° South 494 568 37,000 -857 Level FlightAware ADS-B
Wed 07:12:44 AM 41.3590 3.7990 198° South 493 567 35,800 -1,765 Descending FlightAware ADS-B
Wed 07:13:28 AM 41.2680 3.7580 199° South 486 559 34,500 -2,122 Descending FlightAware ADS-B
Wed 07:14:06 AM 41.1830 3.7200 199° South 481 554 32,900 -2,214 Descending FlightAware ADS-B
Wed 07:14:52 AM 41.0880 3.6780 198° South 468 539 31,400 -1,977 Descending FlightAware ADS-B
Wed 07:15:34 AM 41.0030 3.6400 199° South 456 525 30,000 -1,852 Descending FlightAware ADS-B
Wed 07:16:13 AM 40.9310 3.6080 199° South 448 516 28,900 -2,000 Descending FlightAware ADS-B
Wed 07:16:58 AM 40.8380 3.5670 198° South 437 503 27,200 -2,118 Descending FlightAware ADS-B
Wed 07:17:38 AM 40.7630 3.5340 198° South 427 491 25,900 -2,000 Descending FlightAware ADS-B
Wed 07:18:22 AM 40.6810 3.4980 198° South 418 481 24,400 -2,000 Descending FlightAware ADS-B
Wed 07:19:02 AM 40.6070 3.4660 198° South 409 471 23,100 -2,025 Descending FlightAware ADS-B
Wed 07:19:42 AM 40.5360 3.4350 198° South 407 468 21,700 -1,810 Descending FlightAware ADS-B
Wed 07:21:08 AM 40.4230 3.3950 195° South 402 463 19,300 -2,226 Descending FlightAware ADS-B
Wed 07:21:46 AM 40.3130 3.4000 178° South 387 445 17,100 -2,819 Descending FlightAware ADS-B
Wed 07:22:31 AM 40.2310 3.4050 177° South 388 447 15,400 -2,067 Descending FlightAware ADS-B
Wed 07:23:16 AM 40.1520 3.4090 178° South 370 426 14,000 -1,650 Descending FlightAware ADS-B
Wed 07:23:51 AM 40.0940 3.4120 178° South 352 405 13,200 -1,050 Descending FlightAware ADS-B
Wed 07:24:36 AM 40.0240 3.4160 177° South 324 373 12,600 -1,067 Descending FlightAware ADS-B
Wed 07:25:21 AM 39.9570 3.4200 177° South 309 356 11,600 -1,241 Descending FlightAware ADS-B
Wed 07:26:03 AM 39.9050 3.4230 177° South 313 360 10,800 -1,291 Descending FlightAware ADS-B
Wed 07:26:40 AM 39.8470 3.4260 178° South 305 351 9,900 -1,254 Descending FlightAware ADS-B
Wed 07:27:10 AM 39.8070 3.4280 178° South 303 349 9,400 -1,300 Descending FlightAware ADS-B
Wed 07:27:40 AM 39.7580 3.4310 177° South 302 348 8,600 -1,350 Descending FlightAware ADS-B
Wed 07:27:50 AM 39.7490 3.4290 190° South 299 344 8,500 -1,200 Descending FlightAware ADS-B
Wed 07:28:05 AM 39.7270 3.4150 206° Southwest 288 331 8,100 -1,371 Descending FlightAware ADS-B
Wed 07:28:25 AM 39.7150 3.3890 239° Southwest 281 323 7,700 -1,400 Descending FlightAware ADS-B
Wed 07:28:35 AM 39.7120 3.3710 258° West 279 321 7,400 -1,500 Descending FlightAware ADS-B
Wed 07:29:05 AM 39.7100 3.3200 267° West 273 314 6,700 -1,158 Descending FlightAware ADS-B
Wed 07:29:32 AM 39.7090 3.2810 268° West 260 299 6,300 -750 Descending FlightAware ADS-B
Wed 07:29:45 AM 39.7080 3.2570 267° West 256 295 6,200 -474 Descending FlightAware ADS-B
Wed 07:30:10 AM 39.7070 3.2200 268° West 260 299 6,000 -600 Descending FlightAware ADS-B
Wed 07:30:25 AM 39.7070 3.1960 270° West 260 299 5,800 -933 Descending FlightAware ADS-B
Wed 07:30:55 AM 39.7060 3.1500 268° West 257 296 5,300 -933 Descending FlightAware ADS-B
Wed 07:31:10 AM 39.7060 3.1260 270° West 248 285 5,100 -800 Descending FlightAware ADS-B
Wed 07:31:40 AM 39.7030 3.0840 265° West 224 258 4,700 -429 Descending FlightAware ADS-B
Wed 07:32:06 AM 39.6940 3.0570 247° West 187 215 4,700 -240 Level FlightAware ADS-B
Wed 07:32:30 AM 39.6850 3.0360 241° Southwest 179 206 4,500 -667 Descending FlightAware ADS-B
Wed 07:33:00 AM 39.6710 3.0080 237° Southwest 179 206 4,100 -1,100 Descending FlightAware ADS-B
Wed 07:33:30 AM 39.6580 2.9780 241° Southwest 193 222 3,400 -1,200 Descending FlightAware ADS-B
Wed 07:34:00 AM 39.6430 2.9480 237° Southwest 185 213 2,900 -873 Descending FlightAware ADS-B
Wed 07:34:25 AM 39.6330 2.9250 241° Southwest 173 199 2,600 -840 Descending FlightAware ADS-B
Wed 07:34:50 AM 39.6220 2.9030 237° Southwest 168 193 2,200 -873 Descending FlightAware ADS-B
Wed 07:35:20 AM 39.6110 2.8790 239° Southwest 142 163 1,800 -700 Descending FlightAware ADS-B
Wed 07:35:50 AM 39.6010 2.8590 237° Southwest 133 153 1,500 -700 Descending FlightAware ADS-B
Wed 07:36:20 AM 39.5920 2.8380 241° Southwest 134 154 1,100 -720 Descending FlightAware ADS-B
Wed 07:36:40 AM 39.5860 2.8260 237° Southwest 133 153 900 -643 Descending FlightAware ADS-B
Wed 07:37:16 AM 39.5740 2.8000 239° Southwest 132 152 500 -689 Descending FlightAware ADS-B
Wed 07:37:41 AM 39.5670 2.7860 237° Southwest 133 153 200 -360 Descending FlightAware ADS-B
Wed 07:38:06 AM 39.5600 2.7720 237° Southwest 133 153 200  Level FlightAware ADS-B
Wed 07:40:00 AM 39.5517 2.7388 252° West  Level Estimated
Wed 07:41:00 AM 39.5517 2.7388 197° South  Level Estimated
Wed 07:42:00 AM 39.5517 2.7388 197° South  Level Estimated
Wed 07:43:00 AM 39.5517 2.7388 197° South  Level Estimated
Wed 07:44:00 AM 39.5517 2.7388 197° South  Level Estimated
Wed 07:45:00 AM 39.5517 2.7388 197° South  Level Estimated

Login

Don't have an account? Register now (free) for customized features, flight alerts, and more!